sensor_id;sensor_type;location;lat;lon;timestamp;P1;durP1;ratioP1;P2;durP2;ratioP2
22248;SDS011;67538;52.180;5.646;2023-05-14T00:02:18;22.80;;;16.60;;
22248;SDS011;67538;52.180;5.646;2023-05-14T00:04:45;26.13;;;16.20;;
22248;SDS011;67538;52.180;5.646;2023-05-14T00:07:12;24.88;;;16.90;;
22248;SDS011;67538;52.180;5.646;2023-05-14T00:09:40;23.20;;;17.30;;
22248;SDS011;67538;52.180;5.646;2023-05-14T00:12:07;26.77;;;17.48;;
22248;SDS011;67538;52.180;5.646;2023-05-14T00:14:34;28.20;;;17.53;;
22248;SDS011;67538;52.180;5.646;2023-05-14T00:17:01;25.95;;;17.35;;
22248;SDS011;67538;52.180;5.646;2023-05-14T00:19:29;26.15;;;17.45;;
22248;SDS011;67538;52.180;5.646;2023-05-14T00:21:56;25.35;;;17.23;;
22248;SDS011;67538;52.180;5.646;2023-05-14T00:24:23;25.17;;;16.75;;
22248;SDS011;67538;52.180;5.646;2023-05-14T00:26:51;28.67;;;18.00;;
22248;SDS011;67538;52.180;5.646;2023-05-14T00:29:18;27.10;;;17.63;;
22248;SDS011;67538;52.180;5.646;2023-05-14T00:31:45;25.08;;;17.45;;
22248;SDS011;67538;52.180;5.646;2023-05-14T00:34:12;24.58;;;17.25;;
22248;SDS011;67538;52.180;5.646;2023-05-14T00:36:39;25.63;;;17.15;;
22248;SDS011;67538;52.180;5.646;2023-05-14T00:39:06;22.63;;;16.55;;
22248;SDS011;67538;52.180;5.646;2023-05-14T00:41:34;24.63;;;17.23;;
22248;SDS011;67538;52.180;5.646;2023-05-14T00:44:02;31.53;;;18.07;;
22248;SDS011;67538;52.180;5.646;2023-05-14T00:46:29;25.80;;;16.75;;
22248;SDS011;67538;52.180;5.646;2023-05-14T00:48:56;23.37;;;16.53;;
22248;SDS011;67538;52.180;5.646;2023-05-14T00:51:24;28.50;;;18.08;;
22248;SDS011;67538;52.180;5.646;2023-05-14T00:53:51;27.73;;;17.37;;
22248;SDS011;67538;52.180;5.646;2023-05-14T00:56:19;23.60;;;17.30;;
22248;SDS011;67538;52.180;5.646;2023-05-14T00:58:46;26.27;;;17.45;;
22248;SDS011;67538;52.180;5.646;2023-05-14T01:01:14;26.93;;;17.43;;
22248;SDS011;67538;52.180;5.646;2023-05-14T01:03:42;28.35;;;17.20;;
22248;SDS011;67538;52.180;5.646;2023-05-14T01:06:11;26.75;;;17.50;;
22248;SDS011;67538;52.180;5.646;2023-05-14T01:08:45;23.88;;;18.00;;
22248;SDS011;67538;52.180;5.646;2023-05-14T01:11:23;27.40;;;17.95;;
22248;SDS011;67538;52.180;5.646;2023-05-14T01:13:56;25.02;;;16.88;;
22248;SDS011;67538;52.180;5.646;2023-05-14T01:16:30;27.70;;;17.75;;
22248;SDS011;67538;52.180;5.646;2023-05-14T01:18:59;25.58;;;18.02;;
22248;SDS011;67538;52.180;5.646;2023-05-14T01:21:36;25.95;;;17.55;;
22248;SDS011;67538;52.180;5.646;2023-05-14T01:24:05;27.92;;;17.40;;
22248;SDS011;67538;52.180;5.646;2023-05-14T01:26:32;28.02;;;18.48;;
22248;SDS011;67538;52.180;5.646;2023-05-14T01:29:01;28.17;;;17.90;;
22248;SDS011;67538;52.180;5.646;2023-05-14T01:34:04;27.00;;;17.25;;
22248;SDS011;67538;52.180;5.646;2023-05-14T01:36:32;26.52;;;17.30;;
22248;SDS011;67538;52.180;5.646;2023-05-14T01:39:02;28.05;;;16.77;;
22248;SDS011;67538;52.180;5.646;2023-05-14T01:41:29;26.90;;;18.10;;
22248;SDS011;67538;52.180;5.646;2023-05-14T01:43:57;27.50;;;17.95;;
22248;SDS011;67538;52.180;5.646;2023-05-14T01:46:24;27.60;;;17.13;;
22248;SDS011;67538;52.180;5.646;2023-05-14T01:48:51;22.95;;;17.27;;
22248;SDS011;67538;52.180;5.646;2023-05-14T01:51:18;25.00;;;17.73;;
22248;SDS011;67538;52.180;5.646;2023-05-14T01:53:45;24.90;;;17.42;;
22248;SDS011;67538;52.180;5.646;2023-05-14T01:56:13;31.20;;;17.90;;
22248;SDS011;67538;52.180;5.646;2023-05-14T01:58:40;25.08;;;17.95;;
22248;SDS011;67538;52.180;5.646;2023-05-14T02:01:07;24.85;;;17.75;;
22248;SDS011;67538;52.180;5.646;2023-05-14T02:03:34;29.58;;;18.30;;
22248;SDS011;67538;52.180;5.646;2023-05-14T02:06:01;26.17;;;17.33;;
22248;SDS011;67538;52.180;5.646;2023-05-14T02:08:29;25.27;;;18.13;;
22248;SDS011;67538;52.180;5.646;2023-05-14T02:10:56;27.73;;;18.67;;
22248;SDS011;67538;52.180;5.646;2023-05-14T02:13:25;31.17;;;18.65;;
22248;SDS011;67538;52.180;5.646;2023-05-14T02:15:52;28.38;;;19.00;;
22248;SDS011;67538;52.180;5.646;2023-05-14T02:18:19;29.60;;;19.30;;
22248;SDS011;67538;52.180;5.646;2023-05-14T02:20:46;27.55;;;18.83;;
22248;SDS011;67538;52.180;5.646;2023-05-14T02:23:13;31.35;;;18.40;;
22248;SDS011;67538;52.180;5.646;2023-05-14T02:25:40;25.77;;;17.90;;
22248;SDS011;67538;52.180;5.646;2023-05-14T02:28:07;25.20;;;16.70;;
22248;SDS011;67538;52.180;5.646;2023-05-14T02:30:35;26.80;;;16.90;;
22248;SDS011;67538;52.180;5.646;2023-05-14T02:33:02;25.02;;;17.90;;
22248;SDS011;67538;52.180;5.646;2023-05-14T02:35:29;27.88;;;18.88;;
22248;SDS011;67538;52.180;5.646;2023-05-14T02:37:56;25.65;;;18.55;;
22248;SDS011;67538;52.180;5.646;2023-05-14T02:40:23;27.40;;;19.17;;
22248;SDS011;67538;52.180;5.646;2023-05-14T02:42:51;24.17;;;17.70;;
22248;SDS011;67538;52.180;5.646;2023-05-14T02:45:18;27.23;;;19.08;;
22248;SDS011;67538;52.180;5.646;2023-05-14T02:47:47;29.23;;;18.95;;
22248;SDS011;67538;52.180;5.646;2023-05-14T02:50:14;29.10;;;18.92;;
22248;SDS011;67538;52.180;5.646;2023-05-14T02:52:41;27.90;;;18.77;;
22248;SDS011;67538;52.180;5.646;2023-05-14T02:55:08;30.00;;;18.73;;
22248;SDS011;67538;52.180;5.646;2023-05-14T02:57:35;29.85;;;19.58;;
22248;SDS011;67538;52.180;5.646;2023-05-14T03:00:03;30.33;;;19.23;;
22248;SDS011;67538;52.180;5.646;2023-05-14T03:02:31;28.73;;;19.10;;
22248;SDS011;67538;52.180;5.646;2023-05-14T03:05:00;31.20;;;19.40;;
22248;SDS011;67538;52.180;5.646;2023-05-14T03:07:27;30.38;;;20.27;;
22248;SDS011;67538;52.180;5.646;2023-05-14T03:09:54;33.47;;;19.98;;
22248;SDS011;67538;52.180;5.646;2023-05-14T03:12:21;32.33;;;20.55;;
22248;SDS011;67538;52.180;5.646;2023-05-14T03:14:48;28.13;;;19.85;;
22248;SDS011;67538;52.180;5.646;2023-05-14T03:17:15;27.90;;;19.38;;
22248;SDS011;67538;52.180;5.646;2023-05-14T03:19:42;29.90;;;19.50;;
22248;SDS011;67538;52.180;5.646;2023-05-14T03:22:10;30.58;;;19.77;;
22248;SDS011;67538;52.180;5.646;2023-05-14T03:24:38;30.33;;;20.77;;
22248;SDS011;67538;52.180;5.646;2023-05-14T03:27:05;29.05;;;20.17;;
22248;SDS011;67538;52.180;5.646;2023-05-14T03:29:32;28.40;;;20.27;;
22248;SDS011;67538;52.180;5.646;2023-05-14T03:31:59;28.73;;;20.42;;
22248;SDS011;67538;52.180;5.646;2023-05-14T03:34:26;31.55;;;20.77;;
22248;SDS011;67538;52.180;5.646;2023-05-14T03:36:53;29.95;;;20.83;;
22248;SDS011;67538;52.180;5.646;2023-05-14T03:39:22;30.40;;;20.63;;
22248;SDS011;67538;52.180;5.646;2023-05-14T03:41:49;31.98;;;21.10;;
22248;SDS011;67538;52.180;5.646;2023-05-14T03:44:16;33.20;;;20.33;;
22248;SDS011;67538;52.180;5.646;2023-05-14T03:46:43;31.80;;;20.52;;
22248;SDS011;67538;52.180;5.646;2023-05-14T03:49:10;30.00;;;20.80;;
22248;SDS011;67538;52.180;5.646;2023-05-14T03:51:37;32.40;;;20.70;;
22248;SDS011;67538;52.180;5.646;2023-05-14T03:54:04;33.33;;;20.70;;
22248;SDS011;67538;52.180;5.646;2023-05-14T03:56:33;32.45;;;21.95;;
22248;SDS011;67538;52.180;5.646;2023-05-14T03:59:00;32.58;;;21.42;;
22248;SDS011;67538;52.180;5.646;2023-05-14T04:01:27;32.47;;;21.38;;
22248;SDS011;67538;52.180;5.646;2023-05-14T04:03:54;33.33;;;21.23;;
22248;SDS011;67538;52.180;5.646;2023-05-14T04:06:21;30.07;;;21.37;;
22248;SDS011;67538;52.180;5.646;2023-05-14T04:08:48;32.28;;;21.27;;
22248;SDS011;67538;52.180;5.646;2023-05-14T04:11:15;31.88;;;22.10;;
22248;SDS011;67538;52.180;5.646;2023-05-14T04:13:43;32.40;;;21.42;;
22248;SDS011;67538;52.180;5.646;2023-05-14T04:16:10;33.83;;;22.90;;
22248;SDS011;67538;52.180;5.646;2023-05-14T04:18:37;31.00;;;21.63;;
22248;SDS011;67538;52.180;5.646;2023-05-14T04:21:04;27.52;;;21.33;;
22248;SDS011;67538;52.180;5.646;2023-05-14T04:23:31;31.73;;;21.38;;
22248;SDS011;67538;52.180;5.646;2023-05-14T04:25:58;31.50;;;22.65;;
22248;SDS011;67538;52.180;5.646;2023-05-14T04:28:25;31.27;;;21.95;;
22248;SDS011;67538;52.180;5.646;2023-05-14T04:30:54;30.80;;;22.07;;
22248;SDS011;67538;52.180;5.646;2023-05-14T04:33:21;33.08;;;22.20;;
22248;SDS011;67538;52.180;5.646;2023-05-14T04:35:48;30.15;;;22.13;;
22248;SDS011;67538;52.180;5.646;2023-05-14T04:38:16;33.90;;;21.88;;
22248;SDS011;67538;52.180;5.646;2023-05-14T04:40:43;32.63;;;22.10;;
22248;SDS011;67538;52.180;5.646;2023-05-14T04:43:10;35.50;;;22.53;;
22248;SDS011;67538;52.180;5.646;2023-05-14T04:45:37;27.52;;;20.80;;
22248;SDS011;67538;52.180;5.646;2023-05-14T04:48:06;32.30;;;21.17;;
22248;SDS011;67538;52.180;5.646;2023-05-14T04:50:33;32.65;;;21.23;;
22248;SDS011;67538;52.180;5.646;2023-05-14T04:53:00;33.50;;;21.20;;
22248;SDS011;67538;52.180;5.646;2023-05-14T04:55:27;29.50;;;21.03;;
22248;SDS011;67538;52.180;5.646;2023-05-14T04:57:55;30.67;;;21.13;;
22248;SDS011;67538;52.180;5.646;2023-05-14T05:00:22;30.75;;;21.98;;
22248;SDS011;67538;52.180;5.646;2023-05-14T05:02:49;32.40;;;20.77;;
22248;SDS011;67538;52.180;5.646;2023-05-14T05:05:18;28.65;;;21.02;;
22248;SDS011;67538;52.180;5.646;2023-05-14T05:07:45;31.42;;;20.55;;
22248;SDS011;67538;52.180;5.646;2023-05-14T05:10:12;28.85;;;20.98;;
22248;SDS011;67538;52.180;5.646;2023-05-14T05:12:39;27.77;;;20.00;;
22248;SDS011;67538;52.180;5.646;2023-05-14T05:15:07;27.37;;;19.93;;
22248;SDS011;67538;52.180;5.646;2023-05-14T05:17:34;24.05;;;18.70;;
22248;SDS011;67538;52.180;5.646;2023-05-14T05:20:02;26.17;;;18.33;;
22248;SDS011;67538;52.180;5.646;2023-05-14T05:22:34;28.02;;;18.52;;
22248;SDS011;67538;52.180;5.646;2023-05-14T05:25:01;26.00;;;17.73;;
22248;SDS011;67538;52.180;5.646;2023-05-14T05:27:30;25.77;;;18.02;;
22248;SDS011;67538;52.180;5.646;2023-05-14T05:29:57;27.02;;;17.50;;
22248;SDS011;67538;52.180;5.646;2023-05-14T05:32:26;25.33;;;17.73;;
22248;SDS011;67538;52.180;5.646;2023-05-14T05:34:53;27.63;;;17.10;;
22248;SDS011;67538;52.180;5.646;2023-05-14T05:37:20;24.55;;;17.50;;
22248;SDS011;67538;52.180;5.646;2023-05-14T05:39:49;22.02;;;17.05;;
22248;SDS011;67538;52.180;5.646;2023-05-14T05:42:16;24.23;;;17.08;;
22248;SDS011;67538;52.180;5.646;2023-05-14T05:44:43;22.88;;;17.08;;
22248;SDS011;67538;52.180;5.646;2023-05-14T05:47:10;24.95;;;16.50;;
22248;SDS011;67538;52.180;5.646;2023-05-14T05:49:37;27.13;;;17.63;;
22248;SDS011;67538;52.180;5.646;2023-05-14T05:52:04;24.27;;;17.50;;
22248;SDS011;67538;52.180;5.646;2023-05-14T05:54:31;24.95;;;16.63;;
22248;SDS011;67538;52.180;5.646;2023-05-14T05:57:00;26.45;;;17.65;;
22248;SDS011;67538;52.180;5.646;2023-05-14T05:59:27;24.75;;;17.20;;
22248;SDS011;67538;52.180;5.646;2023-05-14T06:01:54;24.20;;;17.45;;
22248;SDS011;67538;52.180;5.646;2023-05-14T06:04:21;25.20;;;17.30;;
22248;SDS011;67538;52.180;5.646;2023-05-14T06:06:48;26.50;;;17.65;;
22248;SDS011;67538;52.180;5.646;2023-05-14T06:09:15;22.30;;;17.65;;
22248;SDS011;67538;52.180;5.646;2023-05-14T06:11:42;30.38;;;18.27;;
22248;SDS011;67538;52.180;5.646;2023-05-14T06:14:11;23.70;;;17.30;;
22248;SDS011;67538;52.180;5.646;2023-05-14T06:16:38;24.77;;;17.88;;
22248;SDS011;67538;52.180;5.646;2023-05-14T06:19:05;26.90;;;17.63;;
22248;SDS011;67538;52.180;5.646;2023-05-14T06:21:32;23.52;;;16.88;;
22248;SDS011;67538;52.180;5.646;2023-05-14T06:23:59;22.63;;;16.55;;
22248;SDS011;67538;52.180;5.646;2023-05-14T06:26:26;24.27;;;16.57;;
22248;SDS011;67538;52.180;5.646;2023-05-14T06:28:53;20.70;;;15.93;;
22248;SDS011;67538;52.180;5.646;2023-05-14T06:31:22;26.95;;;16.92;;
22248;SDS011;67538;52.180;5.646;2023-05-14T06:33:49;24.25;;;16.38;;
22248;SDS011;67538;52.180;5.646;2023-05-14T06:36:16;21.95;;;16.27;;
22248;SDS011;67538;52.180;5.646;2023-05-14T06:38:43;23.27;;;14.98;;
22248;SDS011;67538;52.180;5.646;2023-05-14T06:41:10;21.95;;;15.48;;
22248;SDS011;67538;52.180;5.646;2023-05-14T06:43:37;25.10;;;16.38;;
22248;SDS011;67538;52.180;5.646;2023-05-14T06:46:04;26.90;;;16.43;;
22248;SDS011;67538;52.180;5.646;2023-05-14T06:48:32;23.60;;;16.00;;
22248;SDS011;67538;52.180;5.646;2023-05-14T06:50:59;22.08;;;16.13;;
22248;SDS011;67538;52.180;5.646;2023-05-14T06:53:27;23.55;;;16.17;;
22248;SDS011;67538;52.180;5.646;2023-05-14T06:55:54;24.65;;;15.00;;
22248;SDS011;67538;52.180;5.646;2023-05-14T06:58:21;23.35;;;15.48;;
22248;SDS011;67538;52.180;5.646;2023-05-14T07:00:48;21.63;;;15.35;;
22248;SDS011;67538;52.180;5.646;2023-05-14T07:03:15;24.27;;;16.15;;
22248;SDS011;67538;52.180;5.646;2023-05-14T07:05:43;22.35;;;14.68;;
22248;SDS011;67538;52.180;5.646;2023-05-14T07:08:11;23.33;;;15.70;;
22248;SDS011;67538;52.180;5.646;2023-05-14T07:10:38;21.98;;;15.10;;
22248;SDS011;67538;52.180;5.646;2023-05-14T07:13:05;22.93;;;14.80;;
22248;SDS011;67538;52.180;5.646;2023-05-14T07:15:33;21.33;;;13.88;;
22248;SDS011;67538;52.180;5.646;2023-05-14T07:18:00;23.38;;;14.40;;
22248;SDS011;67538;52.180;5.646;2023-05-14T07:20:27;20.75;;;13.48;;
22248;SDS011;67538;52.180;5.646;2023-05-14T07:22:56;18.23;;;12.90;;
22248;SDS011;67538;52.180;5.646;2023-05-14T07:25:23;21.17;;;13.18;;
22248;SDS011;67538;52.180;5.646;2023-05-14T07:27:50;19.08;;;12.15;;
22248;SDS011;67538;52.180;5.646;2023-05-14T07:30:17;16.00;;;11.57;;
22248;SDS011;67538;52.180;5.646;2023-05-14T07:32:44;15.85;;;11.10;;
22248;SDS011;67538;52.180;5.646;2023-05-14T07:35:11;21.45;;;11.73;;
22248;SDS011;67538;52.180;5.646;2023-05-14T07:37:38;16.98;;;11.15;;
22248;SDS011;67538;52.180;5.646;2023-05-14T07:40:07;16.85;;;11.00;;
22248;SDS011;67538;52.180;5.646;2023-05-14T07:42:35;16.70;;;10.45;;
22248;SDS011;67538;52.180;5.646;2023-05-14T07:45:02;15.57;;;10.50;;
22248;SDS011;67538;52.180;5.646;2023-05-14T07:47:29;17.83;;;10.48;;
22248;SDS011;67538;52.180;5.646;2023-05-14T07:49:56;17.23;;;9.75;;
22248;SDS011;67538;52.180;5.646;2023-05-14T07:52:24;16.73;;;9.90;;
22248;SDS011;67538;52.180;5.646;2023-05-14T07:54:51;16.55;;;9.63;;
22248;SDS011;67538;52.180;5.646;2023-05-14T07:57:20;17.37;;;9.77;;
22248;SDS011;67538;52.180;5.646;2023-05-14T07:59:47;21.90;;;11.13;;
22248;SDS011;67538;52.180;5.646;2023-05-14T08:02:14;19.05;;;10.25;;
22248;SDS011;67538;52.180;5.646;2023-05-14T08:04:41;16.38;;;10.63;;
22248;SDS011;67538;52.180;5.646;2023-05-14T08:07:09;16.93;;;11.00;;
22248;SDS011;67538;52.180;5.646;2023-05-14T08:09:36;16.90;;;9.85;;
22248;SDS011;67538;52.180;5.646;2023-05-14T08:12:03;18.95;;;10.23;;
22248;SDS011;67538;52.180;5.646;2023-05-14T08:14:33;15.13;;;10.20;;
22248;SDS011;67538;52.180;5.646;2023-05-14T08:17:00;20.10;;;11.10;;
22248;SDS011;67538;52.180;5.646;2023-05-14T08:19:27;18.23;;;11.18;;
22248;SDS011;67538;52.180;5.646;2023-05-14T08:21:54;18.70;;;11.77;;
22248;SDS011;67538;52.180;5.646;2023-05-14T08:24:21;22.95;;;13.70;;
22248;SDS011;67538;52.180;5.646;2023-05-14T08:26:48;20.08;;;14.02;;
22248;SDS011;67538;52.180;5.646;2023-05-14T08:29:15;23.13;;;14.43;;
22248;SDS011;67538;52.180;5.646;2023-05-14T08:31:43;22.77;;;14.98;;
22248;SDS011;67538;52.180;5.646;2023-05-14T08:34:10;22.93;;;13.83;;
22248;SDS011;67538;52.180;5.646;2023-05-14T08:36:38;20.07;;;13.23;;
22248;SDS011;67538;52.180;5.646;2023-05-14T08:39:05;21.90;;;13.02;;
22248;SDS011;67538;52.180;5.646;2023-05-14T08:41:32;21.58;;;12.77;;
22248;SDS011;67538;52.180;5.646;2023-05-14T08:44:02;18.27;;;12.25;;
22248;SDS011;67538;52.180;5.646;2023-05-14T08:46:34;22.17;;;12.43;;
22248;SDS011;67538;52.180;5.646;2023-05-14T08:49:09;21.38;;;12.25;;
22248;SDS011;67538;52.180;5.646;2023-05-14T08:51:42;20.27;;;12.35;;
22248;SDS011;67538;52.180;5.646;2023-05-14T08:54:11;18.42;;;11.32;;
22248;SDS011;67538;52.180;5.646;2023-05-14T08:56:41;21.58;;;11.48;;
22248;SDS011;67538;52.180;5.646;2023-05-14T08:59:09;20.23;;;11.23;;
22248;SDS011;67538;52.180;5.646;2023-05-14T09:01:37;16.57;;;10.30;;
22248;SDS011;67538;52.180;5.646;2023-05-14T09:04:05;20.73;;;10.43;;
22248;SDS011;67538;52.180;5.646;2023-05-14T09:06:34;20.35;;;10.95;;
22248;SDS011;67538;52.180;5.646;2023-05-14T09:09:02;15.35;;;9.60;;
22248;SDS011;67538;52.180;5.646;2023-05-14T09:11:30;16.53;;;9.83;;
22248;SDS011;67538;52.180;5.646;2023-05-14T09:13:57;16.63;;;9.50;;
22248;SDS011;67538;52.180;5.646;2023-05-14T09:16:24;17.40;;;8.90;;
22248;SDS011;67538;52.180;5.646;2023-05-14T09:18:51;19.23;;;8.80;;
22248;SDS011;67538;52.180;5.646;2023-05-14T09:21:18;19.98;;;10.20;;
22248;SDS011;67538;52.180;5.646;2023-05-14T09:23:47;18.63;;;10.65;;
22248;SDS011;67538;52.180;5.646;2023-05-14T09:26:21;14.60;;;9.10;;
22248;SDS011;67538;52.180;5.646;2023-05-14T09:28:52;16.77;;;8.50;;
22248;SDS011;67538;52.180;5.646;2023-05-14T09:31:20;15.13;;;8.80;;
22248;SDS011;67538;52.180;5.646;2023-05-14T09:33:48;21.60;;;9.13;;
22248;SDS011;67538;52.180;5.646;2023-05-14T09:36:16;16.77;;;8.57;;
22248;SDS011;67538;52.180;5.646;2023-05-14T09:38:44;17.08;;;7.80;;
22248;SDS011;67538;52.180;5.646;2023-05-14T09:41:12;14.18;;;8.10;;
22248;SDS011;67538;52.180;5.646;2023-05-14T09:43:40;14.25;;;7.78;;
22248;SDS011;67538;52.180;5.646;2023-05-14T09:46:07;13.93;;;7.22;;
22248;SDS011;67538;52.180;5.646;2023-05-14T09:48:34;15.98;;;7.70;;
22248;SDS011;67538;52.180;5.646;2023-05-14T09:51:01;14.25;;;6.97;;
22248;SDS011;67538;52.180;5.646;2023-05-14T09:53:29;18.10;;;8.02;;
22248;SDS011;67538;52.180;5.646;2023-05-14T09:55:59;15.43;;;7.10;;
22248;SDS011;67538;52.180;5.646;2023-05-14T09:58:28;15.27;;;7.88;;
22248;SDS011;67538;52.180;5.646;2023-05-14T10:00:55;16.83;;;8.00;;
22248;SDS011;67538;52.180;5.646;2023-05-14T10:03:24;14.85;;;8.15;;
22248;SDS011;67538;52.180;5.646;2023-05-14T10:05:52;19.02;;;8.60;;
22248;SDS011;67538;52.180;5.646;2023-05-14T10:08:23;19.65;;;8.50;;
22248;SDS011;67538;52.180;5.646;2023-05-14T10:10:53;13.70;;;7.40;;
22248;SDS011;67538;52.180;5.646;2023-05-14T10:13:22;16.85;;;9.07;;
22248;SDS011;67538;52.180;5.646;2023-05-14T10:15:56;14.27;;;9.05;;
22248;SDS011;67538;52.180;5.646;2023-05-14T10:18:33;14.30;;;8.20;;
22248;SDS011;67538;52.180;5.646;2023-05-14T10:21:05;13.43;;;7.90;;
22248;SDS011;67538;52.180;5.646;2023-05-14T10:23:33;14.90;;;8.37;;
22248;SDS011;67538;52.180;5.646;2023-05-14T10:26:02;15.98;;;8.48;;
22248;SDS011;67538;52.180;5.646;2023-05-14T10:28:30;16.58;;;8.80;;
22248;SDS011;67538;52.180;5.646;2023-05-14T10:30:59;15.98;;;8.82;;
22248;SDS011;67538;52.180;5.646;2023-05-14T10:33:26;16.65;;;8.93;;
22248;SDS011;67538;52.180;5.646;2023-05-14T10:35:54;13.15;;;8.48;;
22248;SDS011;67538;52.180;5.646;2023-05-14T10:38:24;14.48;;;8.20;;
22248;SDS011;67538;52.180;5.646;2023-05-14T10:40:55;17.88;;;9.10;;
22248;SDS011;67538;52.180;5.646;2023-05-14T10:43:25;20.07;;;9.87;;
22248;SDS011;67538;52.180;5.646;2023-05-14T10:45:54;17.33;;;9.23;;
22248;SDS011;67538;52.180;5.646;2023-05-14T10:48:23;17.08;;;9.20;;
22248;SDS011;67538;52.180;5.646;2023-05-14T10:50:51;16.60;;;10.25;;
22248;SDS011;67538;52.180;5.646;2023-05-14T10:53:19;18.97;;;9.17;;
22248;SDS011;67538;52.180;5.646;2023-05-14T10:55:55;18.15;;;8.65;;
22248;SDS011;67538;52.180;5.646;2023-05-14T10:58:22;18.60;;;8.63;;
22248;SDS011;67538;52.180;5.646;2023-05-14T11:00:49;15.85;;;8.80;;
22248;SDS011;67538;52.180;5.646;2023-05-14T11:03:20;21.48;;;9.70;;
22248;SDS011;67538;52.180;5.646;2023-05-14T11:05:49;18.60;;;9.65;;
22248;SDS011;67538;52.180;5.646;2023-05-14T11:08:16;18.85;;;9.55;;
22248;SDS011;67538;52.180;5.646;2023-05-14T11:10:45;14.13;;;8.52;;
22248;SDS011;67538;52.180;5.646;2023-05-14T11:13:12;17.17;;;8.90;;
22248;SDS011;67538;52.180;5.646;2023-05-14T11:15:42;17.60;;;9.17;;
22248;SDS011;67538;52.180;5.646;2023-05-14T11:18:12;22.15;;;10.00;;
22248;SDS011;67538;52.180;5.646;2023-05-14T11:20:39;17.10;;;9.20;;
22248;SDS011;67538;52.180;5.646;2023-05-14T11:23:07;15.55;;;8.30;;
22248;SDS011;67538;52.180;5.646;2023-05-14T11:25:35;18.83;;;9.13;;
22248;SDS011;67538;52.180;5.646;2023-05-14T11:28:02;17.88;;;8.82;;
22248;SDS011;67538;52.180;5.646;2023-05-14T11:30:30;16.60;;;8.17;;
22248;SDS011;67538;52.180;5.646;2023-05-14T11:32:57;14.47;;;7.97;;
22248;SDS011;67538;52.180;5.646;2023-05-14T11:35:24;18.70;;;8.95;;
22248;SDS011;67538;52.180;5.646;2023-05-14T11:37:52;17.27;;;7.57;;
22248;SDS011;67538;52.180;5.646;2023-05-14T11:40:20;15.63;;;7.80;;
22248;SDS011;67538;52.180;5.646;2023-05-14T11:42:49;17.17;;;8.60;;
22248;SDS011;67538;52.180;5.646;2023-05-14T11:45:23;16.70;;;7.80;;
22248;SDS011;67538;52.180;5.646;2023-05-14T11:47:51;15.20;;;8.20;;
22248;SDS011;67538;52.180;5.646;2023-05-14T11:50:19;15.15;;;7.85;;
22248;SDS011;67538;52.180;5.646;2023-05-14T11:52:46;15.90;;;7.57;;
22248;SDS011;67538;52.180;5.646;2023-05-14T11:55:15;15.40;;;7.57;;
22248;SDS011;67538;52.180;5.646;2023-05-14T11:57:44;16.80;;;8.57;;
22248;SDS011;67538;52.180;5.646;2023-05-14T12:00:12;14.70;;;8.35;;
22248;SDS011;67538;52.180;5.646;2023-05-14T12:02:46;18.55;;;8.10;;
22248;SDS011;67538;52.180;5.646;2023-05-14T12:05:13;15.98;;;8.50;;
22248;SDS011;67538;52.180;5.646;2023-05-14T12:07:43;15.40;;;7.35;;
22248;SDS011;67538;52.180;5.646;2023-05-14T12:10:10;18.50;;;8.20;;
22248;SDS011;67538;52.180;5.646;2023-05-14T12:12:37;14.65;;;6.80;;
22248;SDS011;67538;52.180;5.646;2023-05-14T12:15:10;13.07;;;7.00;;
22248;SDS011;67538;52.180;5.646;2023-05-14T12:17:38;15.63;;;6.77;;
22248;SDS011;67538;52.180;5.646;2023-05-14T12:20:07;11.88;;;6.03;;
22248;SDS011;67538;52.180;5.646;2023-05-14T12:22:36;11.10;;;5.75;;
22248;SDS011;67538;52.180;5.646;2023-05-14T12:25:04;16.10;;;6.13;;
22248;SDS011;67538;52.180;5.646;2023-05-14T12:27:37;9.90;;;5.85;;
22248;SDS011;67538;52.180;5.646;2023-05-14T12:30:05;12.35;;;6.15;;
22248;SDS011;67538;52.180;5.646;2023-05-14T12:32:34;14.27;;;5.70;;
22248;SDS011;67538;52.180;5.646;2023-05-14T12:35:05;14.10;;;6.63;;
22248;SDS011;67538;52.180;5.646;2023-05-14T12:37:32;12.55;;;6.65;;
22248;SDS011;67538;52.180;5.646;2023-05-14T12:40:00;15.82;;;6.20;;
22248;SDS011;67538;52.180;5.646;2023-05-14T12:42:28;11.23;;;6.20;;
22248;SDS011;67538;52.180;5.646;2023-05-14T12:44:55;14.30;;;6.15;;
22248;SDS011;67538;52.180;5.646;2023-05-14T12:47:23;10.32;;;5.75;;
22248;SDS011;67538;52.180;5.646;2023-05-14T12:49:52;11.85;;;6.13;;
22248;SDS011;67538;52.180;5.646;2023-05-14T12:52:19;21.73;;;7.28;;
22248;SDS011;67538;52.180;5.646;2023-05-14T12:54:46;13.68;;;6.32;;
22248;SDS011;67538;52.180;5.646;2023-05-14T12:57:13;13.05;;;6.53;;
22248;SDS011;67538;52.180;5.646;2023-05-14T12:59:40;14.30;;;6.40;;
22248;SDS011;67538;52.180;5.646;2023-05-14T13:02:07;12.30;;;6.15;;
22248;SDS011;67538;52.180;5.646;2023-05-14T13:04:34;15.10;;;6.32;;
22248;SDS011;67538;52.180;5.646;2023-05-14T13:07:03;14.73;;;6.53;;
22248;SDS011;67538;52.180;5.646;2023-05-14T13:09:32;14.07;;;5.97;;
22248;SDS011;67538;52.180;5.646;2023-05-14T13:11:59;17.58;;;6.20;;
22248;SDS011;67538;52.180;5.646;2023-05-14T13:14:27;13.32;;;5.47;;
22248;SDS011;67538;52.180;5.646;2023-05-14T13:16:54;13.32;;;5.95;;
22248;SDS011;67538;52.180;5.646;2023-05-14T13:19:21;16.95;;;6.57;;
22248;SDS011;67538;52.180;5.646;2023-05-14T13:21:48;9.82;;;5.90;;
22248;SDS011;67538;52.180;5.646;2023-05-14T13:24:16;14.60;;;5.78;;
22248;SDS011;67538;52.180;5.646;2023-05-14T13:26:43;10.55;;;4.93;;
22248;SDS011;67538;52.180;5.646;2023-05-14T13:29:10;9.35;;;4.70;;
22248;SDS011;67538;52.180;5.646;2023-05-14T13:31:37;15.00;;;5.50;;
22248;SDS011;67538;52.180;5.646;2023-05-14T13:34:04;10.60;;;4.75;;
22248;SDS011;67538;52.180;5.646;2023-05-14T13:36:32;10.57;;;4.75;;
22248;SDS011;67538;52.180;5.646;2023-05-14T13:39:03;12.30;;;4.40;;
22248;SDS011;67538;52.180;5.646;2023-05-14T13:41:32;12.50;;;5.00;;
22248;SDS011;67538;52.180;5.646;2023-05-14T13:44:00;14.48;;;5.03;;
22248;SDS011;67538;52.180;5.646;2023-05-14T13:46:27;10.88;;;4.07;;
22248;SDS011;67538;52.180;5.646;2023-05-14T13:48:54;10.35;;;3.92;;
22248;SDS011;67538;52.180;5.646;2023-05-14T13:51:21;10.65;;;3.50;;
22248;SDS011;67538;52.180;5.646;2023-05-14T13:53:48;10.80;;;3.42;;
22248;SDS011;67538;52.180;5.646;2023-05-14T13:56:15;7.33;;;3.30;;
22248;SDS011;67538;52.180;5.646;2023-05-14T13:58:43;8.43;;;3.30;;
22248;SDS011;67538;52.180;5.646;2023-05-14T14:01:11;8.80;;;3.90;;
22248;SDS011;67538;52.180;5.646;2023-05-14T14:03:38;9.32;;;3.65;;
22248;SDS011;67538;52.180;5.646;2023-05-14T14:06:05;12.68;;;4.22;;
22248;SDS011;67538;52.180;5.646;2023-05-14T14:08:32;7.80;;;3.60;;
22248;SDS011;67538;52.180;5.646;2023-05-14T14:10:59;9.07;;;3.95;;
22248;SDS011;67538;52.180;5.646;2023-05-14T14:13:26;11.30;;;4.18;;
22248;SDS011;67538;52.180;5.646;2023-05-14T14:15:55;11.02;;;3.45;;
22248;SDS011;67538;52.180;5.646;2023-05-14T14:18:22;8.90;;;4.17;;
22248;SDS011;67538;52.180;5.646;2023-05-14T14:20:49;11.18;;;3.85;;
22248;SDS011;67538;52.180;5.646;2023-05-14T14:23:16;7.60;;;3.60;;
22248;SDS011;67538;52.180;5.646;2023-05-14T14:25:43;9.25;;;3.95;;
22248;SDS011;67538;52.180;5.646;2023-05-14T14:28:10;13.13;;;4.60;;
22248;SDS011;67538;52.180;5.646;2023-05-14T14:30:37;11.63;;;5.18;;
22248;SDS011;67538;52.180;5.646;2023-05-14T14:33:06;12.82;;;4.70;;